Hagaman, Illinois
Current Conditions -  °F | °C
As of 12:55 AM on Sunday 23 Nov 2014 (Local Time) from K3LF Reporting Station
Broken Clouds Broken Clouds  
Wind Chill: 44°   Ceiling: 8500
Heat Index: 49°   Visibility: 10mi
Dew Point: 44°   Wind: 14mph
Humidity: 82%   Direction: 160°SSE
Pressure: 29.85"   Gusts: NA
Location:  39.2816°N, 90.0918°W
Report Text: K3LF 230655Z AUTO 16012KT 10SM BKN085 10/07 A2985 RMK AO2 T00960067
Loading
Personal Weather Stations






























Interactive Weather Map New forecast layout! Learn more

10-Day Weather Forecast

Advertisements
Track Severe Weather on mobile